Time;durP1;ratioP1;P1;durP2;ratioP2;P2;SDS_P1;SDS_P2;PMS_P1;PMS_P2;Temp;Humidity;BMP_temperature;BMP_pressure;BME280_temperature;BME280_humidity;BME280_pressure;Samples;Min_cycle;Max_cycle;Signal;HPM_P1;HPM_P2
2022/04/23 00:02:04;;;;;;;4.95;4.00;;;;;;;18.02;41.40;99721.74;1755980;81;21528;-92
2022/04/23 00:04:31;;;;;;;7.00;3.98;;;;;;;18.02;41.39;99717.61;1773289;81;20980;-92
2022/04/23 00:06:59;;;;;;;5.62;3.87;;;;;;;18.02;41.41;99724.49;1755750;81;20941;-92
2022/04/23 00:09:25;;;;;;;4.85;3.67;;;;;;;18.02;41.43;99722.55;1772859;80;21275;-93
2022/04/23 00:11:55;;;;;;;4.85;4.00;;;;;;;18.02;41.40;99722.55;1740877;82;20933;-92
2022/04/23 00:14:25;;;;;;;4.67;4.15;;;;;;;18.02;41.41;99728.62;1755926;81;21095;-92
2022/04/23 00:17:00;;;;;;;5.65;3.95;;;;;;;18.02;41.43;99722.55;1772827;80;20878;-92
2022/04/23 00:19:25;;;;;;;6.33;3.98;;;;;;;18.01;41.42;99718.17;1755458;81;20908;-92
2022/04/23 00:21:51;;;;;;;5.15;3.92;;;;;;;18.01;41.44;99714.61;1773191;80;20960;-92
2022/04/23 00:24:17;;;;;;;5.42;4.17;;;;;;;18.00;41.44;99713.80;1740773;82;20917;-92
2022/04/23 00:26:44;;;;;;;5.30;3.52;;;;;;;18.01;41.42;99710.48;1755910;81;21147;-92
2022/04/23 00:29:10;;;;;;;5.12;3.60;;;;;;;18.00;41.45;99712.42;1772957;81;20905;-92
2022/04/23 00:31:36;;;;;;;4.65;3.52;;;;;;;18.00;41.45;99708.30;1755914;81;20913;-92
2022/04/23 00:34:05;;;;;;;4.12;3.70;;;;;;;18.00;41.46;99704.17;1772689;81;21453;-92
2022/04/23 00:36:32;;;;;;;4.12;3.70;;;;;;;17.99;41.46;99699.01;1740964;81;20901;-92
2022/04/23 00:38:58;;;;;;;5.05;4.00;;;;;;;17.99;41.48;99708.05;1755783;81;21871;-92
2022/04/23 00:44:09;;;;;;;4.10;3.25;;;;;;;17.99;41.48;99705.89;1773088;81;20933;-92
2022/04/23 00:46:35;;;;;;;6.00;4.10;;;;;;;17.99;41.48;99708.05;1755842;81;20858;-92
2022/04/23 00:49:02;;;;;;;5.72;3.70;;;;;;;17.99;41.47;99708.05;1773252;81;21259;-92
2022/04/23 00:51:30;;;;;;;4.55;3.92;;;;;;;17.99;41.48;99710.80;1772927;81;21581;-92
2022/04/23 00:53:56;;;;;;;4.45;3.83;;;;;;;17.98;41.51;99700.14;1740512;81;20993;-92
2022/04/23 00:56:23;;;;;;;6.30;3.87;;;;;;;17.99;41.50;99701.77;1762289;81;20975;-92
2022/04/23 00:58:49;;;;;;;4.40;3.65;;;;;;;17.99;41.50;99703.92;1750645;81;20972;-92
2022/04/23 01:01:15;;;;;;;4.60;3.95;;;;;;;17.99;41.51;99706.67;1772476;80;21342;-92
2022/04/23 01:03:45;;;;;;;5.97;4.00;;;;;;;17.99;41.50;99705.89;1772994;80;21566;-92
2022/04/23 01:06:11;;;;;;;4.62;3.90;;;;;;;17.98;41.51;99700.14;1772607;80;20936;-92
2022/04/23 01:08:37;;;;;;;6.95;4.25;;;;;;;17.99;41.53;99700.38;1772645;80;21351;-92
2022/04/23 01:11:04;;;;;;;5.05;4.20;;;;;;;17.99;41.55;99703.14;1772571;80;20889;-92
2022/04/23 01:13:30;;;;;;;5.03;3.92;;;;;;;17.98;41.54;99700.95;1772937;80;21368;-92
2022/04/23 01:16:07;;;;;;;4.40;3.60;;;;;;;17.98;41.55;99701.52;1772585;80;21585;-92
2022/04/23 01:18:36;;;;;;;4.40;4.00;;;;;;;17.98;41.55;99703.70;1772853;80;21285;-92
2022/04/23 01:21:02;;;;;;;5.05;3.87;;;;;;;17.98;41.54;99696.01;1772354;80;20923;-92
2022/04/23 01:23:29;;;;;;;4.72;4.20;;;;;;;17.98;41.55;99693.25;1772707;80;20846;-92
2022/04/23 01:25:56;;;;;;;4.30;3.72;;;;;;;17.97;41.54;99682.00;1740625;82;20978;-92
2022/04/23 01:28:23;;;;;;;5.80;3.87;;;;;;;17.97;41.55;99689.69;1772573;80;21138;-92
2022/04/23 01:30:54;;;;;;;4.60;3.62;;;;;;;17.97;41.55;99687.50;1740452;81;21332;-92
2022/04/23 01:33:20;;;;;;;5.78;4.35;;;;;;;17.97;41.56;99686.94;1773041;80;21914;-92
2022/04/23 01:35:46;;;;;;;4.95;4.35;;;;;;;17.97;41.55;99691.07;1772388;80;20886;-92
2022/04/23 01:38:13;;;;;;;6.78;4.20;;;;;;;17.98;41.56;99688.56;1772876;80;20842;-92
2022/04/23 01:40:40;;;;;;;5.22;4.50;;;;;;;17.97;41.56;99684.75;1772733;80;21281;-92
2022/04/23 01:43:06;;;;;;;6.97;4.10;;;;;;;17.97;41.56;99679.25;1772434;81;20909;-92
2022/04/23 01:45:32;;;;;;;4.35;3.95;;;;;;;17.97;41.56;99684.75;1772849;80;21314;-92
2022/04/23 01:47:58;;;;;;;5.97;4.37;;;;;;;17.98;41.56;99689.13;1772817;79;20916;-92
2022/04/23 01:50:24;;;;;;;6.05;4.45;;;;;;;17.97;41.58;99690.25;1772399;80;20885;-92
2022/04/23 01:52:50;;;;;;;5.75;4.60;;;;;;;17.97;41.55;99693.01;1772779;80;21306;-92
2022/04/23 01:55:16;;;;;;;5.40;4.40;;;;;;;17.98;41.58;99686.38;1772933;81;20991;-92
2022/04/23 01:57:42;;;;;;;5.58;4.67;;;;;;;17.97;41.56;99680.63;1740387;81;20910;-92
2022/04/23 02:00:10;;;;;;;4.80;3.98;;;;;;;17.97;41.57;99684.19;1772658;80;20957;-92
2022/04/23 02:02:37;;;;;;;6.87;4.58;;;;;;;17.97;41.59;99682.81;1748386;81;21444;-92
2022/04/23 02:05:11;;;;;;;6.22;4.50;;;;;;;17.97;41.57;99676.50;1777825;80;20995;-92
2022/04/23 02:07:38;;;;;;;6.12;4.22;;;;;;;17.96;41.58;99677.06;1775395;80;20956;-92
2022/04/23 02:10:06;;;;;;;4.92;4.40;;;;;;;17.96;41.57;99677.06;1746352;80;20898;-93
2022/04/23 02:12:33;;;;;;;5.42;4.10;;;;;;;17.97;41.59;99689.69;1775068;80;21247;-92
2022/04/23 02:15:00;;;;;;;6.37;4.72;;;;;;;17.96;41.58;99685.88;1733784;82;20945;-92
2022/04/23 02:17:39;;;;;;;5.35;4.42;;;;;;;17.95;41.59;99673.28;1756385;81;21734;-93
2022/04/23 02:20:09;;;;;;;6.28;4.53;;;;;;;17.96;41.57;99670.74;1756229;81;21750;-93
2022/04/23 02:22:36;;;;;;;6.53;4.78;;;;;;;17.95;41.59;99668.55;1756192;81;20981;-92
2022/04/23 02:25:02;;;;;;;7.03;4.65;;;;;;;17.94;41.60;99671.09;1756362;81;20973;-92
2022/04/23 02:27:47;;;;;;;5.25;4.58;;;;;;;17.95;41.58;99670.53;1755559;81;20901;-92
2022/04/23 02:30:19;;;;;;;6.15;4.60;;;;;;;17.94;41.58;99660.08;1777086;80;21756;-92
2022/04/23 02:32:46;;;;;;;6.28;4.40;;;;;;;17.96;41.58;99666.62;1748092;81;20977;-92
2022/04/23 02:35:14;;;;;;;6.80;5.20;;;;;;;17.94;41.59;99666.97;1777814;80;20878;-92
2022/04/23 02:37:42;;;;;;;5.97;4.62;;;;;;;17.95;41.57;99666.40;1747945;81;20863;-92
2022/04/23 02:40:08;;;;;;;9.00;4.75;;;;;;;17.95;41.56;99675.44;1777484;80;21250;-92
2022/04/23 02:42:41;;;;;;;6.42;4.87;;;;;;;17.94;41.58;99677.16;1735727;81;21231;-92
2022/04/23 02:45:08;;;;;;;5.25;4.75;;;;;;;17.95;41.55;99673.28;1778018;80;20963;-92
2022/04/23 02:47:52;;;;;;;5.85;4.85;;;;;;;17.94;41.57;99679.34;1747857;81;21725;-93
2022/04/23 02:50:31;;;;;;;5.92;4.37;;;;;;;17.94;41.60;99678.53;1777304;80;20944;-93
2022/04/23 02:52:58;;;;;;;6.55;4.58;;;;;;;17.93;41.57;99676.34;1747999;81;20954;-92
2022/04/23 02:55:25;;;;;;;6.90;5.03;;;;;;;17.93;41.56;99679.09;1777750;80;21179;-92
2022/04/23 02:57:52;;;;;;;6.20;4.70;;;;;;;17.93;41.59;99683.22;1748130;82;20938;-92
2022/04/23 03:00:19;;;;;;;6.53;4.50;;;;;;;17.92;41.58;99687.11;1777686;80;21365;-92
2022/04/23 03:02:47;;;;;;;5.95;4.47;;;;;;;17.92;41.60;99684.35;1701932;83;20926;-92
2022/04/23 03:05:16;;;;;;;6.87;5.00;;;;;;;17.92;41.60;99691.23;1709350;82;21315;-92
2022/04/23 03:07:44;;;;;;;5.03;4.42;;;;;;;17.91;41.62;99682.73;1709315;83;21284;-92
2022/04/23 03:10:13;;;;;;;6.05;4.60;;;;;;;17.92;41.61;99684.92;1737977;81;21034;-92
2022/04/23 03:12:39;;;;;;;6.00;4.90;;;;;;;17.92;41.60;99685.73;1738090;82;20962;-92
2022/04/23 03:15:16;;;;;;;6.58;4.90;;;;;;;17.92;41.61;99678.03;1738053;82;20952;-92
2022/04/23 03:17:42;;;;;;;8.75;5.28;;;;;;;17.91;41.61;99679.98;1734463;82;20953;-92
2022/04/23 03:20:10;;;;;;;5.65;4.83;;;;;;;17.92;41.59;99679.41;1737866;82;21067;-92
2022/04/23 03:22:37;;;;;;;7.37;5.05;;;;;;;17.92;41.60;99679.41;1738452;82;20945;-92
2022/04/23 03:25:05;;;;;;;5.00;4.50;;;;;;;17.92;41.59;99678.03;1738042;82;20976;-92
2022/04/23 03:27:31;;;;;;;7.60;5.12;;;;;;;17.92;41.61;99678.03;1737942;82;20957;-92
2022/04/23 03:29:58;;;;;;;5.85;4.95;;;;;;;17.92;41.59;99678.03;1738337;82;21496;-92
2022/04/23 03:32:25;;;;;;;6.85;4.78;;;;;;;17.93;41.59;99685.16;1737900;82;21471;-92
2022/04/23 03:34:51;;;;;;;6.95;4.85;;;;;;;17.91;41.60;99678.59;1737797;82;21096;-93
2022/04/23 03:37:17;;;;;;;6.72;5.10;;;;;;;17.92;41.63;99686.30;1738201;82;20984;-92
2022/04/23 03:39:48;;;;;;;6.08;4.90;;;;;;;17.91;41.60;99679.20;1738213;82;21738;-92
2022/04/23 03:42:11;;;;;;;6.75;4.95;;;;;;;17.90;41.61;99693.52;1737017;82;21325;-92
2022/04/23 03:44:38;;;;;;;8.10;5.28;;;;;;;17.92;41.59;99695.36;1737865;82;21277;-92
2022/04/23 03:47:04;;;;;;;6.45;5.37;;;;;;;17.90;41.61;99696.27;1738111;82;20917;-92
2022/04/23 03:49:31;;;;;;;6.25;5.15;;;;;;;17.91;41.61;99694.33;1737698;82;20996;-92
2022/04/23 03:51:57;;;;;;;5.78;5.00;;;;;;;17.91;41.60;99695.70;1738092;82;20906;-92
2022/04/23 03:54:23;;;;;;;4.95;4.45;;;;;;;17.90;41.61;99690.77;1738061;82;20863;-92
2022/04/23 03:56:49;;;;;;;6.45;4.80;;;;;;;17.91;41.61;99699.83;1737850;82;21146;-92
2022/04/23 03:59:20;;;;;;;5.22;4.65;;;;;;;17.89;41.62;99702.90;1738097;82;20929;-92
2022/04/23 04:01:43;;;;;;;6.12;5.28;;;;;;;17.89;41.60;99696.59;1735233;80;21306;-92
2022/04/23 04:04:09;;;;;;;7.22;5.10;;;;;;;17.89;41.60;99700.71;1732986;81;20855;-92
2022/04/23 04:06:35;;;;;;;6.92;5.12;;;;;;;17.89;41.61;99698.77;1733244;81;20914;-92
2022/04/23 04:09:01;;;;;;;5.00;4.50;;;;;;;17.89;41.60;99700.15;1733331;81;21287;-92
2022/04/23 04:12:00;;;;;;;6.60;5.15;;;;;;;17.89;41.62;99698.77;1732719;82;21020;-93
2022/04/23 04:13:55;;;;;;;7.05;5.17;;;;;;;17.90;41.61;99699.02;1710673;82;20973;-92
2022/04/23 04:16:22;;;;;;;5.42;4.85;;;;;;;17.89;41.60;99701.52;1719398;83;20887;-92
2022/04/23 04:18:48;;;;;;;6.15;5.08;;;;;;;17.89;41.59;99705.66;1772499;80;20866;-92
2022/04/23 04:21:15;;;;;;;7.35;5.00;;;;;;;17.90;41.60;99712.78;1772843;80;21029;-92
2022/04/23 04:23:41;;;;;;;6.58;5.12;;;;;;;17.91;41.60;99717.72;1772305;80;21374;-92
2022/04/23 04:26:07;;;;;;;5.47;4.40;;;;;;;17.89;41.60;99707.03;1753119;81;20932;-92
2022/04/23 04:28:34;;;;;;;5.90;4.95;;;;;;;17.90;41.60;99708.66;1772467;80;20944;-92
2022/04/23 04:33:45;;;;;;;7.10;4.95;;;;;;;17.89;41.60;99702.90;1772061;80;21164;-92
2022/04/23 04:36:11;;;;;;;6.17;5.25;;;;;;;17.90;41.56;99703.15;1769451;81;20900;-92
2022/04/23 04:38:37;;;;;;;7.33;5.90;;;;;;;17.90;41.58;99706.46;1772837;79;21464;-92
2022/04/23 04:41:04;;;;;;;5.87;5.25;;;;;;;17.90;41.59;99701.77;1772431;80;20893;-92
2022/04/23 04:43:31;;;;;;;6.87;5.05;;;;;;;17.90;41.59;99711.41;1772599;80;21319;-92
2022/04/23 04:45:57;;;;;;;6.95;4.97;;;;;;;17.89;41.60;99705.66;1772680;80;21350;-92
2022/04/23 04:48:23;;;;;;;6.55;5.28;;;;;;;17.90;41.59;99707.84;1772620;80;21325;-92
2022/04/23 04:50:49;;;;;;;7.50;5.28;;;;;;;17.90;41.60;99705.09;1773042;80;20897;-92
2022/04/23 04:53:15;;;;;;;6.95;5.37;;;;;;;17.89;41.60;99704.28;1773074;80;21491;-92
2022/04/23 04:55:41;;;;;;;6.12;4.90;;;;;;;17.90;41.60;99705.09;1772267;80;21005;-92
2022/04/23 04:58:07;;;;;;;6.40;5.15;;;;;;;17.90;41.62;99703.15;1772763;80;21266;-92
2022/04/23 05:00:33;;;;;;;6.20;5.00;;;;;;;17.90;41.61;99702.34;1772363;80;20885;-92
2022/04/23 05:02:59;;;;;;;6.25;5.47;;;;;;;17.90;41.61;99698.20;1776884;79;20873;-92
2022/04/23 05:05:25;;;;;;;6.87;5.58;;;;;;;17.90;41.60;99698.20;1777826;80;21403;-92
2022/04/23 05:07:51;;;;;;;7.08;5.30;;;;;;;17.90;41.61;99701.77;1748349;81;20874;-92
2022/04/23 05:10:17;;;;;;;5.78;5.12;;;;;;;17.91;41.61;99695.70;1778062;80;21224;-92
2022/04/23 05:12:43;;;;;;;6.42;5.15;;;;;;;17.90;41.60;99696.27;1747943;82;20941;-92
2022/04/23 05:15:11;;;;;;;8.48;5.72;;;;;;;17.91;41.60;99692.95;1778090;80;20888;-92
2022/04/23 05:17:39;;;;;;;6.15;5.47;;;;;;;17.91;41.61;99704.73;1777555;80;20861;-92
2022/04/23 05:20:06;;;;;;;7.50;5.30;;;;;;;17.91;41.61;99703.96;1778159;80;20905;-92
2022/04/23 05:22:32;;;;;;;6.67;5.30;;;;;;;17.91;41.63;99706.71;1775686;80;21206;-92
2022/04/23 05:24:58;;;;;;;6.33;5.30;;;;;;;17.90;41.65;99703.15;1747859;82;20858;-92
2022/04/23 05:27:27;;;;;;;8.48;5.60;;;;;;;17.91;41.64;99695.11;1778103;80;20920;-92
2022/04/23 05:29:53;;;;;;;6.80;5.45;;;;;;;17.90;41.62;99682.52;1748147;81;20941;-92
2022/04/23 05:32:19;;;;;;;6.25;5.40;;;;;;;17.91;41.65;99679.20;1777853;80;20889;-92
2022/04/23 05:34:45;;;;;;;8.33;5.05;;;;;;;17.91;41.62;99684.10;1748102;81;21787;-92
2022/04/23 05:37:11;;;;;;;6.30;5.05;;;;;;;17.90;41.65;99686.64;1777836;80;20877;-92
2022/04/23 05:39:37;;;;;;;5.78;5.10;;;;;;;17.90;41.65;99681.14;1775483;80;20834;-92
2022/04/23 05:42:04;;;;;;;6.00;5.15;;;;;;;17.91;41.65;99686.08;1775290;80;20957;-92
2022/04/23 05:44:30;;;;;;;5.72;4.42;;;;;;;17.91;41.64;99688.23;1775683;80;20953;-92
2022/04/23 05:46:56;;;;;;;5.53;4.92;;;;;;;17.92;41.64;99693.17;1775304;80;21173;-92
2022/04/23 05:49:22;;;;;;;6.58;5.33;;;;;;;17.92;41.63;99691.23;1748171;81;21316;-92
2022/04/23 05:51:48;;;;;;;6.62;5.08;;;;;;;17.92;41.61;99700.05;1778154;80;20932;-93
2022/04/23 05:54:15;;;;;;;6.08;5.47;;;;;;;17.92;41.65;99694.55;1775382;80;20874;-92
2022/04/23 05:56:41;;;;;;;6.40;5.22;;;;;;;17.92;41.63;99704.98;1775073;80;20866;-92
2022/04/23 05:59:07;;;;;;;5.90;4.85;;;;;;;17.92;41.64;99706.93;1775564;80;21259;-92
2022/04/23 06:01:34;;;;;;;7.47;4.78;;;;;;;17.91;41.62;99706.12;1775039;80;21299;-92
2022/04/23 06:04:00;;;;;;;6.50;4.95;;;;;;;17.92;41.64;99703.61;1775615;80;20979;-92
2022/04/23 06:06:26;;;;;;;6.90;5.00;;;;;;;17.92;41.64;99698.11;1775631;80;20961;-93
2022/04/23 06:08:52;;;;;;;6.05;4.72;;;;;;;17.92;41.64;99697.30;1774841;80;21780;-92
2022/04/23 06:11:18;;;;;;;5.45;4.70;;;;;;;17.92;41.61;99689.05;1758455;81;21279;-92
2022/04/23 06:13:44;;;;;;;6.25;4.83;;;;;;;17.92;41.61;99692.61;1775885;80;20936;-92
2022/04/23 06:16:10;;;;;;;4.90;4.42;;;;;;;17.92;41.61;99687.11;1743137;81;20979;-92
2022/04/23 06:18:36;;;;;;;7.55;5.12;;;;;;;17.92;41.63;99691.23;1775655;80;20838;-92
2022/04/23 06:21:03;;;;;;;5.55;5.00;;;;;;;17.92;41.61;99688.48;1775846;80;20882;-93
2022/04/23 06:23:29;;;;;;;7.10;5.00;;;;;;;17.93;41.63;99689.29;1758468;81;21302;-92
2022/04/23 06:25:55;;;;;;;6.05;4.97;;;;;;;17.92;41.61;99688.48;1775783;80;20940;-93
2022/04/23 06:28:21;;;;;;;7.40;5.28;;;;;;;17.93;41.63;99703.05;1743471;82;20908;-92
2022/04/23 06:30:47;;;;;;;8.55;4.97;;;;;;;17.93;41.61;99697.55;1728584;82;20908;-92
2022/04/23 06:33:13;;;;;;;6.70;5.00;;;;;;;17.93;41.59;99710.74;1775761;80;20842;-92
2022/04/23 06:35:39;;;;;;;6.15;5.20;;;;;;;17.92;41.60;99707.74;1775599;80;21679;-92
2022/04/23 06:38:05;;;;;;;5.50;4.92;;;;;;;17.94;41.59;99706.05;1775542;80;20865;-92
2022/04/23 06:40:37;;;;;;;4.92;4.28;;;;;;;17.94;41.58;99714.31;1775638;80;20921;-92
2022/04/23 06:43:04;;;;;;;5.55;4.95;;;;;;;17.94;41.60;99713.74;1747252;80;20810;-92
2022/04/23 06:45:30;;;;;;;5.97;4.95;;;;;;;17.94;41.60;99719.25;1751509;80;20881;-92
2022/04/23 06:48:05;;;;;;;5.97;4.80;;;;;;;17.94;41.63;99713.74;1769122;80;21837;-92
2022/04/23 06:50:32;;;;;;;5.20;4.65;;;;;;;17.94;41.63;99723.38;1775452;80;20936;-92
2022/04/23 06:53:00;;;;;;;9.03;4.97;;;;;;;17.94;41.63;99730.25;1775893;80;20901;-92
2022/04/23 06:55:27;;;;;;;5.72;5.20;;;;;;;17.94;41.64;99728.88;1746933;80;20993;-93
2022/04/23 06:57:54;;;;;;;9.30;4.78;;;;;;;17.94;41.64;99735.76;1775579;80;20893;-92
2022/04/23 07:00:22;;;;;;;8.53;5.47;;;;;;;17.95;41.63;99742.08;1775984;80;21070;-93
2022/04/23 07:02:50;;;;;;;8.83;5.08;;;;;;;17.94;41.64;99741.27;1776781;79;20956;-92
2022/04/23 07:05:17;;;;;;;6.12;4.55;;;;;;;17.95;41.65;99746.20;1777463;80;20932;-92
2022/04/23 07:07:58;;;;;;;6.83;4.75;;;;;;;17.94;41.67;99756.39;1777995;80;20850;-92
2022/04/23 07:10:25;;;;;;;;;;;;;;;17.94;41.69;99768.78;1780438;80;20917;-92
2022/04/23 07:12:52;;;;;;;5.42;4.58;;;;;;;17.93;41.68;99765.78;1778018;80;21094;-92
2022/04/23 07:15:19;;;;;;;6.42;5.10;;;;;;;17.93;41.63;99769.91;1778008;80;20897;-92
2022/04/23 07:17:47;;;;;;;5.85;4.97;;;;;;;17.94;41.65;99773.47;1777547;80;20952;-93
2022/04/23 07:20:14;;;;;;;7.90;5.45;;;;;;;17.94;41.67;99783.91;1778238;80;20972;-92
2022/04/23 07:22:40;;;;;;;5.35;4.85;;;;;;;17.94;41.70;99781.16;1777822;80;21524;-92
2022/04/23 07:25:09;;;;;;;6.72;5.03;;;;;;;17.94;41.72;99779.79;1777893;80;21126;-92
2022/04/23 07:27:36;;;;;;;5.78;4.53;;;;;;;17.94;41.74;99778.97;1777497;80;20861;-93
2022/04/23 07:30:03;;;;;;;6.55;5.00;;;;;;;17.95;41.73;99776.47;1777985;79;20900;-93
2022/04/23 07:32:29;;;;;;;8.15;5.12;;;;;;;17.95;41.75;99787.48;1777503;80;21416;-93
2022/04/23 07:37:41;;;;;;;6.55;5.90;;;;;;;17.94;41.78;99792.17;1761139;80;39810;-92
2022/04/23 07:40:10;;;;;;;8.23;5.35;;;;;;;18.10;41.92;99796.05;1777613;79;21350;-93
2022/04/23 07:42:35;;;;;;;6.20;4.85;;;;;;;18.08;41.79;99801.05;1777755;80;20937;-93
2022/04/23 07:45:01;;;;;;;8.25;5.33;;;;;;;18.06;41.79;99803.34;1777228;79;20873;-92
2022/04/23 07:47:28;;;;;;;7.10;5.05;;;;;;;18.07;41.75;99809.66;1778129;80;21345;-92
2022/04/23 07:49:54;;;;;;;5.85;4.80;;;;;;;18.06;41.75;99806.09;1778035;80;21259;-92
2022/04/23 07:52:20;;;;;;;6.55;5.08;;;;;;;18.06;41.75;99819.84;1777345;80;20873;-92
2022/04/23 07:54:46;;;;;;;7.47;4.90;;;;;;;18.05;41.75;99818.22;1777694;80;20845;-92
2022/04/23 07:57:12;;;;;;;6.05;5.15;;;;;;;18.05;41.75;99816.84;1777915;80;20913;-92
2022/04/23 07:59:45;;;;;;;7.42;4.78;;;;;;;18.04;41.76;99827.61;1777741;80;20921;-92
2022/04/23 08:02:11;;;;;;;6.95;4.97;;;;;;;18.04;41.79;99829.55;1777459;79;21077;-92
2022/04/23 08:04:38;;;;;;;7.35;4.70;;;;;;;18.04;41.78;99830.92;1772793;80;20937;-92
2022/04/23 08:07:04;;;;;;;8.98;6.50;;;;;;;18.03;41.79;99834.27;1772740;80;21282;-92
2022/04/23 08:09:31;;;;;;;7.35;4.95;;;;;;;18.02;41.81;99833.20;1773045;80;20901;-92
2022/04/23 08:11:57;;;;;;;6.30;5.10;;;;;;;18.02;41.81;99835.39;1772767;80;20886;-93
2022/04/23 08:14:23;;;;;;;6.65;4.83;;;;;;;18.01;41.84;99836.52;1772719;81;21161;-92
2022/04/23 08:16:50;;;;;;;7.05;5.00;;;;;;;18.02;41.83;99820.82;1772835;80;20865;-92
2022/04/23 08:19:17;;;;;;;6.35;5.17;;;;;;;18.02;41.83;99827.70;1773070;80;20933;-92
2022/04/23 08:21:49;;;;;;;5.87;4.65;;;;;;;18.01;41.85;99828.27;1771354;81;20925;-92
2022/04/23 08:24:15;;;;;;;5.75;4.92;;;;;;;18.01;41.85;99825.51;1773231;80;20952;-92
2022/04/23 08:26:42;;;;;;;6.15;4.62;;;;;;;18.02;41.87;99825.76;1773265;80;21116;-92
2022/04/23 08:31:52;;;;;;;5.92;4.42;;;;;;;18.02;41.86;99823.01;1760901;81;21334;-92
2022/04/23 08:34:19;;;;;;;6.28;4.62;;;;;;;18.01;41.85;99825.51;1772808;80;20905;-92
2022/04/23 08:36:45;;;;;;;6.08;5.15;;;;;;;18.03;41.87;99838.95;1773125;81;20921;-92
2022/04/23 08:39:11;;;;;;;8.03;4.92;;;;;;;18.02;41.87;99840.90;1773163;80;21278;-92
2022/04/23 08:41:37;;;;;;;6.70;4.67;;;;;;;18.03;41.87;99843.09;1772639;81;20928;-92
2022/04/23 08:44:05;;;;;;;6.50;5.10;;;;;;;18.03;41.88;99837.02;1773188;81;20893;-92
2022/04/23 08:46:36;;;;;;;5.65;4.70;;;;;;;18.03;41.90;99845.28;1772840;80;20925;-92
2022/04/23 08:49:09;;;;;;;;;;;;;;;18.02;41.90;99839.52;1758061;81;20912;-92
2022/04/23 08:51:38;;;;;;;7.10;4.47;;;;;;;18.02;41.95;99835.95;1772478;80;21624;-92
2022/04/23 08:54:10;;;;;;;5.70;4.83;;;;;;;18.02;41.88;99838.14;1773144;80;21511;-92
2022/04/23 08:56:38;;;;;;;7.60;5.22;;;;;;;18.02;41.90;99834.58;1756083;81;21342;-91
2022/04/23 08:59:12;;;;;;;6.25;4.70;;;;;;;18.03;41.90;99843.09;1769925;81;20878;-92
2022/04/23 09:01:38;;;;;;;6.80;4.80;;;;;;;18.02;41.95;99849.16;1772958;80;20924;-92
2022/04/23 09:04:11;;;;;;;5.28;4.15;;;;;;;18.03;41.95;99843.09;1776572;80;21330;-93
2022/04/23 09:06:44;;;;;;;6.35;5.10;;;;;;;18.03;41.97;99843.09;1778143;80;20913;-92
2022/04/23 09:09:21;;;;;;;5.40;4.60;;;;;;;18.02;41.98;99845.03;1777709;80;20885;-93
2022/04/23 09:11:55;;;;;;;5.62;4.53;;;;;;;18.03;42.01;99848.59;1778132;80;20838;-92
2022/04/23 09:14:30;;;;;;;6.70;5.42;;;;;;;18.03;42.03;99852.16;1777716;80;21452;-91
2022/04/23 09:25:17;;;;;;;7.08;4.85;;;;;;;18.03;42.08;99850.78;1777727;80;21266;-91
2022/04/23 09:27:43;;;;;;;7.00;4.85;;;;;;;18.03;42.10;99850.78;1777900;80;20933;-92
2022/04/23 09:30:12;;;;;;;7.92;4.67;;;;;;;18.03;42.14;99842.52;1778059;80;21261;-92
2022/04/23 09:32:58;;;;;;;6.17;4.80;;;;;;;18.03;42.17;99850.78;1777721;80;21266;-92
2022/04/23 09:35:25;;;;;;;6.42;4.78;;;;;;;18.04;42.18;99848.25;1777791;80;20894;-92
2022/04/23 09:40:35;;;;;;;5.50;4.20;;;;;;;18.04;42.25;99840.55;1778050;80;20967;-91
2022/04/23 09:43:05;;;;;;;6.08;4.97;;;;;;;18.04;42.24;99850.19;1777809;80;21168;-91
2022/04/23 09:45:33;;;;;;;7.00;5.12;;;;;;;18.04;42.26;99848.81;1778174;80;20892;-91
2022/04/23 09:48:15;;;;;;;5.95;4.62;;;;;;;18.04;42.29;99840.55;1778090;80;21372;-91
2022/04/23 09:50:44;;;;;;;6.83;4.83;;;;;;;18.05;42.32;99835.30;1777622;80;21243;-91
2022/04/23 09:53:18;;;;;;;8.00;4.97;;;;;;;18.04;42.33;99826.23;1776850;80;21451;-91
2022/04/23 09:55:45;;;;;;;8.05;4.45;;;;;;;18.05;42.36;99836.67;1777570;80;21312;-91
2022/04/23 09:58:13;;;;;;;5.08;4.55;;;;;;;18.06;42.37;99832.23;1777790;80;21369;-91
2022/04/23 10:00:44;;;;;;;8.10;5.08;;;;;;;18.06;42.39;99827.30;1777905;80;20893;-91
2022/04/23 10:03:11;;;;;;;;;;;;;;;18.06;42.41;99827.30;1779048;80;20936;-91
2022/04/23 10:05:44;;;;;;;5.40;4.40;;;;;;;18.05;42.50;99830.61;1772943;81;20110;-91
2022/04/23 10:08:16;;;;;;;5.30;4.20;;;;;;;18.04;42.40;99831.73;1772553;81;22910;-91
2022/04/23 10:10:54;;;;;;;6.85;5.00;;;;;;;18.05;42.43;99840.24;1772020;80;20916;-91
2022/04/23 10:13:28;;;;;;;5.80;3.92;;;;;;;18.05;42.45;99838.87;1761973;81;20890;-91
2022/04/23 10:15:54;;;;;;;5.95;4.30;;;;;;;18.06;42.46;99842.43;1772016;80;20917;-91
2022/04/23 10:18:20;;;;;;;5.47;4.30;;;;;;;18.06;42.50;99844.62;1772819;80;21299;-91
2022/04/23 10:20:57;;;;;;;6.03;4.15;;;;;;;18.07;42.52;99846.81;1772822;80;21259;-91
2022/04/23 10:24:03;;;;;;;6.47;4.87;;;;;;;18.06;42.52;99851.50;1772163;80;20897;-91
2022/04/23 10:26:48;;;;;;;4.95;4.17;;;;;;;18.08;42.55;99858.04;1742256;81;20921;-91
2022/04/23 10:29:19;;;;;;;4.87;4.00;;;;;;;18.08;42.50;99855.28;1748612;81;20964;-91
2022/04/23 10:31:45;;;;;;;6.30;4.25;;;;;;;18.07;42.51;99850.94;1758082;80;20976;-91
2022/04/23 10:34:32;;;;;;;5.40;4.40;;;;;;;18.06;42.54;99851.50;1753494;81;21272;-91
2022/04/23 10:37:20;;;;;;;4.72;4.03;;;;;;;18.08;42.56;99854.73;1771854;81;21271;-91
2022/04/23 10:39:55;;;;;;;5.80;4.50;;;;;;;18.07;42.58;99854.50;1772885;80;20968;-91
2022/04/23 10:42:23;;;;;;;5.47;3.80;;;;;;;18.06;42.57;99869.39;1772586;80;20976;-91
2022/04/23 10:44:51;;;;;;;6.25;4.47;;;;;;;18.08;42.59;99873.99;1772754;80;20881;-91
2022/04/23 10:47:34;;;;;;;5.67;4.35;;;;;;;18.07;42.62;99866.89;1772737;80;21092;-91
2022/04/23 10:50:20;;;;;;;4.90;3.98;;;;;;;18.08;42.62;99875.94;1772330;81;20873;-91
2022/04/23 10:52:46;;;;;;;5.62;4.12;;;;;;;18.08;42.62;99868.48;1772941;80;20965;-91
2022/04/23 10:55:14;;;;;;;6.50;3.92;;;;;;;18.08;42.62;99871.23;1753088;81;21346;-90
2022/04/23 10:57:40;;;;;;;4.60;3.65;;;;;;;18.10;42.64;99879.19;1772844;80;20932;-90
2022/04/23 11:00:13;;;;;;;5.35;3.87;;;;;;;18.08;42.65;99878.13;1753190;81;21887;-91
2022/04/23 11:02:39;;;;;;;5.90;4.33;;;;;;;18.10;42.67;99883.31;1772545;80;21299;-91
2022/04/23 11:13:59;;;;;;;4.70;3.52;;;;;;;18.10;42.63;99892.39;1772493;80;20999;-91
2022/04/23 11:16:29;;;;;;;6.33;4.03;;;;;;;18.10;42.64;99880.56;1772514;80;21425;-91
2022/04/23 11:19:00;;;;;;;6.37;3.70;;;;;;;18.09;42.64;99878.37;1772944;81;21424;-91
2022/04/23 11:21:28;;;;;;;4.65;3.62;;;;;;;18.10;42.67;99882.75;1772467;80;21045;-91
2022/04/23 11:23:57;;;;;;;5.50;3.25;;;;;;;18.10;42.69;99870.36;1766578;81;20928;-91
2022/04/23 11:26:42;;;;;;;5.35;3.72;;;;;;;18.09;42.69;99890.77;1772459;80;21310;-91
2022/04/23 11:29:09;;;;;;;4.83;3.98;;;;;;;18.11;42.71;99882.19;1772363;80;20873;-91
2022/04/23 11:31:35;;;;;;;4.33;3.50;;;;;;;18.10;42.72;99874.50;1772685;80;20897;-91
2022/04/23 11:34:01;;;;;;;4.45;3.08;;;;;;;18.11;42.72;99866.48;1772793;80;21349;-91
2022/04/23 11:36:29;;;;;;;4.40;3.50;;;;;;;18.11;42.75;99860.17;1772413;80;20956;-91
2022/04/23 11:39:00;;;;;;;5.78;3.77;;;;;;;18.11;42.75;99847.22;1772817;81;21381;-91
2022/04/23 11:41:41;;;;;;;5.28;3.20;;;;;;;18.11;42.76;99847.22;1772665;81;20913;-91
2022/04/23 11:44:45;;;;;;;3.65;3.20;;;;;;;18.11;42.77;99859.61;1772592;80;20924;-91
2022/04/23 11:46:54;;;;;;;4.40;3.35;;;;;;;18.12;42.78;99852.16;1767925;81;20862;-91
2022/04/23 11:49:29;;;;;;;3.80;3.10;;;;;;;18.12;42.79;99857.08;1772792;79;20846;-91
2022/04/23 11:52:12;;;;;;;3.95;3.52;;;;;;;18.12;42.79;99862.58;1772479;80;21020;-91
2022/04/23 11:54:43;;;;;;;4.33;3.33;;;;;;;18.11;42.82;99858.80;1742078;82;20869;-91
2022/04/23 11:57:14;;;;;;;3.33;2.72;;;;;;;18.12;42.82;99858.45;1756792;81;20885;-91
2022/04/23 11:59:46;;;;;;;3.50;3.05;;;;;;;18.13;42.81;99868.33;1772744;80;20889;-91
2022/04/23 12:02:23;;;;;;;4.20;3.37;;;;;;;18.12;42.82;99849.41;1772679;80;20933;-91
2022/04/23 12:04:52;;;;;;;5.50;3.40;;;;;;;18.12;42.84;99845.28;1772918;80;20964;-91
2022/04/23 12:07:19;;;;;;;4.92;3.47;;;;;;;18.13;42.84;99844.12;1773085;80;20885;-91
2022/04/23 12:09:56;;;;;;;4.55;3.27;;;;;;;18.13;42.87;99845.50;1756068;81;21010;-91
2022/04/23 12:12:29;;;;;;;4.35;3.10;;;;;;;18.13;42.85;99838.62;1772660;80;21378;-91